createdAt,value
2023-05-09T00:00:25.970Z,15.41
2023-05-09T00:01:25.970Z,15.39
2023-05-09T00:02:26.031Z,15.45
2023-05-09T00:03:25.924Z,15.46
2023-05-09T00:04:25.962Z,15.46
2023-05-09T00:05:25.917Z,15.49
2023-05-09T00:06:25.902Z,15.46
2023-05-09T00:07:25.880Z,15.45
2023-05-09T00:08:25.893Z,15.46
2023-05-09T00:09:25.866Z,15.42
2023-05-09T00:10:25.848Z,15.43
2023-05-09T00:11:25.841Z,15.42
2023-05-09T00:12:25.834Z,15.43
2023-05-09T00:13:25.864Z,15.39
2023-05-09T00:14:25.798Z,15.33
2023-05-09T00:15:25.782Z,15.30
2023-05-09T00:16:25.808Z,15.26
2023-05-09T00:17:25.797Z,15.23
2023-05-09T00:18:25.840Z,15.21
2023-05-09T00:19:25.779Z,15.20
2023-05-09T00:20:25.738Z,15.20
2023-05-09T00:21:25.729Z,15.17
2023-05-09T00:22:25.737Z,15.15
2023-05-09T00:23:25.721Z,15.12
2023-05-09T00:24:25.709Z,15.09
2023-05-09T00:25:25.685Z,15.09
2023-05-09T00:26:25.663Z,15.09
2023-05-09T00:27:25.657Z,15.05
2023-05-09T00:28:25.660Z,15.03
2023-05-09T00:29:25.630Z,15.05
2023-05-09T00:30:25.647Z,15.02
2023-05-09T00:31:25.660Z,14.99
2023-05-09T00:32:25.668Z,14.98
2023-05-09T00:33:25.591Z,14.94
2023-05-09T00:34:25.604Z,14.93
2023-05-09T00:35:25.578Z,14.93
2023-05-09T00:36:25.561Z,14.94
2023-05-09T00:37:25.544Z,14.94
2023-05-09T00:38:25.534Z,14.95
2023-05-09T00:39:25.556Z,14.95
2023-05-09T00:40:25.613Z,14.98
2023-05-09T00:41:25.497Z,14.98
2023-05-09T00:42:25.527Z,14.98
2023-05-09T00:43:25.480Z,14.94
2023-05-09T00:44:25.466Z,14.95
2023-05-09T00:45:25.476Z,14.93
2023-05-09T00:46:25.471Z,14.94
2023-05-09T00:47:25.454Z,14.91
2023-05-09T00:48:25.448Z,14.94
2023-05-09T00:49:25.415Z,14.91
2023-05-09T00:50:25.413Z,14.93
2023-05-09T00:51:25.395Z,14.93
2023-05-09T00:52:25.407Z,14.90
2023-05-09T00:53:25.376Z,14.88
2023-05-09T00:54:25.353Z,14.88
2023-05-09T00:55:25.343Z,14.84
2023-05-09T00:56:25.334Z,14.84
2023-05-09T00:57:25.348Z,14.87
2023-05-09T00:58:25.333Z,14.90
2023-05-09T00:59:25.303Z,14.91
2023-05-09T01:00:25.297Z,14.98
2023-05-09T01:01:25.295Z,15.03
2023-05-09T01:02:25.333Z,15.08
2023-05-09T01:03:25.347Z,15.06
2023-05-09T01:04:25.254Z,15.03
2023-05-09T01:05:25.254Z,14.99
2023-05-09T01:06:25.221Z,14.95
2023-05-09T01:07:25.214Z,14.91
2023-05-09T01:08:25.201Z,14.86
2023-05-09T01:09:31.251Z,14.78
2023-05-09T01:10:25.988Z,14.78
2023-05-09T01:11:25.185Z,14.71
2023-05-09T01:12:25.155Z,14.68
2023-05-09T01:13:25.204Z,14.62
2023-05-09T01:14:25.162Z,14.60
2023-05-09T01:15:25.130Z,14.57
2023-05-09T01:16:25.121Z,14.56
2023-05-09T01:17:25.098Z,14.56
2023-05-09T01:18:25.085Z,14.56
2023-05-09T01:19:25.079Z,14.57
2023-05-09T01:20:25.087Z,14.61
2023-05-09T01:21:25.060Z,14.61
2023-05-09T01:22:25.042Z,14.64
2023-05-09T01:23:25.040Z,14.60
2023-05-09T01:24:25.020Z,14.54
2023-05-09T01:25:25.037Z,14.50
2023-05-09T01:26:24.994Z,14.47
2023-05-09T01:27:24.984Z,14.44
2023-05-09T01:28:24.974Z,14.44
2023-05-09T01:29:24.961Z,14.39
2023-05-09T01:30:24.985Z,14.38
2023-05-09T01:31:24.970Z,14.35
2023-05-09T01:32:24.938Z,14.34
2023-05-09T01:33:24.935Z,14.31
2023-05-09T01:34:24.909Z,14.27
2023-05-09T01:35:24.904Z,14.25
2023-05-09T01:36:24.904Z,14.28
2023-05-09T01:37:24.892Z,14.17
2023-05-09T01:38:24.888Z,14.16
2023-05-09T01:39:24.854Z,14.14
2023-05-09T01:40:24.861Z,14.13
2023-05-09T01:41:24.834Z,14.10
2023-05-09T01:42:24.815Z,14.09
2023-05-09T01:43:24.815Z,14.07
2023-05-09T01:44:24.800Z,14.06
2023-05-09T01:45:24.795Z,14.06
2023-05-09T01:46:24.829Z,14.02
2023-05-09T01:47:24.773Z,14.02
2023-05-09T01:48:24.757Z,14.02
2023-05-09T01:49:24.746Z,14.01
2023-05-09T01:50:24.741Z,13.96
2023-05-09T01:51:24.749Z,13.95
2023-05-09T01:52:24.707Z,13.96
2023-05-09T01:53:24.707Z,13.99
2023-05-09T01:54:24.683Z,14.02
2023-05-09T01:55:24.673Z,14.06
2023-05-09T01:56:24.666Z,14.07
2023-05-09T01:57:24.676Z,14.12
2023-05-09T01:58:24.636Z,14.12
2023-05-09T01:59:24.629Z,14.10
2023-05-09T02:00:24.620Z,14.09
2023-05-09T02:01:24.691Z,14.10
2023-05-09T02:02:24.627Z,14.10
2023-05-09T02:03:24.636Z,14.12
2023-05-09T02:04:24.577Z,14.10
2023-05-09T02:05:24.565Z,14.10
2023-05-09T02:06:24.586Z,14.09
2023-05-09T02:07:24.554Z,14.06
2023-05-09T02:08:24.530Z,14.04
2023-05-09T02:09:24.557Z,14.02
2023-05-09T02:10:24.512Z,14.02
2023-05-09T02:11:24.493Z,14.04
2023-05-09T02:12:24.516Z,14.06
2023-05-09T02:13:24.573Z,14.07
2023-05-09T02:14:24.469Z,14.10
2023-05-09T02:15:24.474Z,14.09
2023-05-09T02:16:24.495Z,14.10
2023-05-09T02:17:24.470Z,14.10
2023-05-09T02:18:24.431Z,14.13
2023-05-09T02:19:24.401Z,14.13
2023-05-09T02:20:24.394Z,14.13
2023-05-09T02:21:24.395Z,14.14
2023-05-09T02:22:24.372Z,14.25
2023-05-09T02:23:24.385Z,14.19
2023-05-09T02:24:24.360Z,14.17
2023-05-09T02:25:24.341Z,14.19
2023-05-09T02:26:24.323Z,14.20
2023-05-09T02:27:24.319Z,14.19
2023-05-09T02:28:24.329Z,14.14
2023-05-09T02:29:24.303Z,14.14
2023-05-09T02:30:24.303Z,14.13
2023-05-09T02:31:24.313Z,14.12
2023-05-09T02:32:24.264Z,14.12
2023-05-09T02:33:24.247Z,14.09
2023-05-09T02:34:24.254Z,14.07
2023-05-09T02:35:24.222Z,14.06
2023-05-09T02:36:24.209Z,14.02
2023-05-09T02:37:24.225Z,14.01
2023-05-09T02:38:24.215Z,14.04
2023-05-09T02:39:24.188Z,14.04
2023-05-09T02:40:24.189Z,14.04
2023-05-09T02:41:24.163Z,14.02
2023-05-09T02:42:24.169Z,14.04
2023-05-09T02:43:24.196Z,14.04
2023-05-09T02:44:24.152Z,14.06
2023-05-09T02:45:24.110Z,14.06
2023-05-09T02:46:24.141Z,14.06
2023-05-09T02:47:24.138Z,14.04
2023-05-09T02:48:24.077Z,14.06
2023-05-09T02:49:31.909Z,14.02
2023-05-09T02:50:24.061Z,13.99
2023-05-09T02:51:24.053Z,13.95
2023-05-09T02:52:24.033Z,13.92
2023-05-09T02:53:24.104Z,13.94
2023-05-09T02:54:24.035Z,13.96
2023-05-09T02:55:24.012Z,13.96
2023-05-09T02:56:23.991Z,13.99
2023-05-09T02:57:23.982Z,13.98
2023-05-09T02:58:23.976Z,13.96
2023-05-09T02:59:23.989Z,13.96
2023-05-09T03:00:23.936Z,13.98
2023-05-09T03:01:24.113Z,13.96
2023-05-09T03:02:24.036Z,13.99
2023-05-09T03:03:23.988Z,14.02
2023-05-09T03:04:23.903Z,14.07
2023-05-09T03:05:23.922Z,14.07
2023-05-09T03:06:23.877Z,14.12
2023-05-09T03:07:23.872Z,14.13
2023-05-09T03:08:23.858Z,14.16
2023-05-09T03:09:23.847Z,14.16
2023-05-09T03:10:23.842Z,14.17
2023-05-09T03:11:23.848Z,14.16
2023-05-09T03:12:23.809Z,14.17
2023-05-09T03:13:23.941Z,14.14
2023-05-09T03:14:23.794Z,14.14
2023-05-09T03:15:23.802Z,14.13
2023-05-09T03:16:23.963Z,14.13
2023-05-09T03:17:23.751Z,14.13
2023-05-09T03:18:23.758Z,14.13
2023-05-09T03:19:23.760Z,14.12
2023-05-09T03:20:23.726Z,14.10
2023-05-09T03:21:23.711Z,14.09
2023-05-09T03:22:23.697Z,14.07
2023-05-09T03:23:23.698Z,14.04
2023-05-09T03:24:23.694Z,14.02
2023-05-09T03:25:23.681Z,14.02
2023-05-09T03:26:23.655Z,14.04
2023-05-09T03:27:23.648Z,14.09
2023-05-09T03:28:23.639Z,14.10
2023-05-09T03:29:23.643Z,14.10
2023-05-09T03:30:23.614Z,14.12
2023-05-09T03:31:23.651Z,14.12
2023-05-09T03:32:23.641Z,14.13
2023-05-09T03:33:23.588Z,14.14
2023-05-09T03:34:23.568Z,14.14
2023-05-09T03:35:23.583Z,14.19
2023-05-09T03:36:38.495Z,14.20
2023-05-09T03:37:24.902Z,14.25
2023-05-09T03:38:23.527Z,14.29
2023-05-09T03:39:23.514Z,14.32
2023-05-09T03:40:23.527Z,14.35
2023-05-09T03:41:23.498Z,14.37
2023-05-09T03:42:23.480Z,14.35
2023-05-09T03:43:23.483Z,14.38
2023-05-09T03:44:23.480Z,14.42
2023-05-09T03:45:23.476Z,14.44
2023-05-09T03:46:23.487Z,14.50
2023-05-09T03:47:23.432Z,14.54
2023-05-09T03:48:23.409Z,14.57
2023-05-09T03:49:23.397Z,14.62
2023-05-09T03:50:23.407Z,14.67
2023-05-09T03:51:23.385Z,14.68
2023-05-09T03:52:23.373Z,14.68
2023-05-09T03:53:23.368Z,14.72
2023-05-09T03:54:23.344Z,14.75
2023-05-09T03:55:23.356Z,14.80
2023-05-09T03:56:23.332Z,14.81
2023-05-09T03:57:23.314Z,14.83
2023-05-09T03:58:23.341Z,14.86
2023-05-09T03:59:23.295Z,14.87
2023-05-09T04:00:23.298Z,14.91
2023-05-09T04:01:23.277Z,14.93
2023-05-09T04:02:23.317Z,14.94
2023-05-09T04:03:23.315Z,15.01
2023-05-09T04:04:23.240Z,15.01
2023-05-09T04:05:23.257Z,15.03
2023-05-09T04:06:23.211Z,15.05
2023-05-09T04:07:23.216Z,15.08
2023-05-09T04:08:23.189Z,15.08
2023-05-09T04:09:23.191Z,15.13
2023-05-09T04:10:23.168Z,15.13
2023-05-09T04:11:23.182Z,15.17
2023-05-09T04:12:23.149Z,15.19
2023-05-09T04:13:23.351Z,15.20
2023-05-09T04:14:23.121Z,15.23
2023-05-09T04:15:23.111Z,15.23
2023-05-09T04:16:23.121Z,15.24
2023-05-09T04:17:23.103Z,15.26
2023-05-09T04:18:23.122Z,15.27
2023-05-09T04:19:23.075Z,15.26
2023-05-09T04:20:23.054Z,15.28
2023-05-09T04:21:23.069Z,15.30
2023-05-09T04:22:23.037Z,15.31
2023-05-09T04:23:23.022Z,15.33
2023-05-09T04:24:23.015Z,15.36
2023-05-09T04:25:23.028Z,15.36
2023-05-09T04:26:22.992Z,15.38
2023-05-09T04:27:22.977Z,15.41
2023-05-09T04:28:22.971Z,15.41
2023-05-09T04:29:22.955Z,15.42
2023-05-09T04:30:22.943Z,15.43
2023-05-09T04:31:23.019Z,15.45
2023-05-09T04:32:22.934Z,15.46
2023-05-09T04:33:22.910Z,15.46
2023-05-09T04:34:22.904Z,15.46
2023-05-09T04:35:23.142Z,15.48
2023-05-09T04:36:22.883Z,15.51
2023-05-09T04:37:22.894Z,15.49
2023-05-09T04:38:22.866Z,15.51
2023-05-09T04:39:22.850Z,15.52
2023-05-09T04:40:23.987Z,15.52
2023-05-09T04:41:22.841Z,15.54
2023-05-09T04:42:22.812Z,15.52
2023-05-09T04:43:22.808Z,15.56
2023-05-09T04:44:22.792Z,15.57
2023-05-09T04:45:22.782Z,15.59
2023-05-09T04:46:25.031Z,15.60
2023-05-09T04:47:22.864Z,15.60
2023-05-09T04:48:22.753Z,15.61
2023-05-09T04:49:22.735Z,15.60
2023-05-09T04:50:22.732Z,15.59
2023-05-09T04:51:22.715Z,15.61
2023-05-09T04:52:22.734Z,15.63
2023-05-09T04:53:22.698Z,15.64
2023-05-09T04:54:22.686Z,15.64
2023-05-09T04:55:22.661Z,15.67
2023-05-09T04:56:22.691Z,15.68
2023-05-09T04:57:22.651Z,15.68
2023-05-09T04:58:22.649Z,15.70
2023-05-09T04:59:22.639Z,15.74
2023-05-09T05:00:22.640Z,15.74
2023-05-09T05:01:22.778Z,15.74
2023-05-09T05:02:22.715Z,15.75
2023-05-09T05:03:22.581Z,15.75
2023-05-09T05:04:22.585Z,15.78
2023-05-09T05:05:25.442Z,15.78
2023-05-09T05:06:22.563Z,15.82
2023-05-09T05:07:22.531Z,15.82
2023-05-09T05:08:22.520Z,15.85
2023-05-09T05:09:22.516Z,15.88
2023-05-09T05:10:22.523Z,15.88
2023-05-09T05:11:22.491Z,15.89
2023-05-09T05:12:22.487Z,15.93
2023-05-09T05:13:22.544Z,15.97
2023-05-09T05:14:22.458Z,15.97
2023-05-09T05:15:22.439Z,16.00
2023-05-09T05:16:22.483Z,16.03
2023-05-09T05:17:22.532Z,16.07
2023-05-09T05:18:22.442Z,16.09
2023-05-09T05:19:22.397Z,16.12
2023-05-09T05:20:22.392Z,16.16
2023-05-09T05:21:22.374Z,16.20
2023-05-09T05:22:22.369Z,16.22
2023-05-09T05:23:22.376Z,16.27
2023-05-09T05:24:22.373Z,16.30
2023-05-09T05:25:22.350Z,16.31
2023-05-09T05:26:22.320Z,16.33
2023-05-09T05:27:22.311Z,16.35
2023-05-09T05:28:22.290Z,16.38
2023-05-09T05:29:22.325Z,16.42
2023-05-09T05:30:22.278Z,16.48
2023-05-09T05:31:22.292Z,16.49
2023-05-09T05:32:22.255Z,16.53
2023-05-09T05:33:22.241Z,16.56
2023-05-09T05:34:22.241Z,16.58
2023-05-09T05:35:22.238Z,16.60
2023-05-09T05:36:22.216Z,16.62
2023-05-09T05:37:22.200Z,16.63
2023-05-09T05:38:22.188Z,16.65
2023-05-09T05:39:22.170Z,16.67
2023-05-09T05:40:22.201Z,16.70
2023-05-09T05:41:22.148Z,16.73
2023-05-09T05:42:22.155Z,16.73
2023-05-09T05:43:22.128Z,16.73
2023-05-09T05:44:22.126Z,16.73
2023-05-09T05:45:22.170Z,16.70
2023-05-09T05:46:22.222Z,16.68
2023-05-09T05:47:22.092Z,16.71
2023-05-09T05:48:22.076Z,16.70
2023-05-09T05:49:22.057Z,16.70
2023-05-09T05:50:22.051Z,16.71
2023-05-09T05:51:22.078Z,16.70
2023-05-09T05:52:22.030Z,16.71
2023-05-09T05:53:22.010Z,16.73
2023-05-09T05:54:21.999Z,16.73
2023-05-09T05:55:21.990Z,16.75
2023-05-09T05:56:21.982Z,16.75
2023-05-09T05:57:21.998Z,16.75
2023-05-09T05:58:21.975Z,16.73
2023-05-09T05:59:21.942Z,16.74
2023-05-09T06:00:21.934Z,16.75
2023-05-09T06:01:21.923Z,16.75
2023-05-09T06:02:21.968Z,16.78
2023-05-09T06:03:22.067Z,16.78
2023-05-09T06:04:22.115Z,16.83
2023-05-09T06:05:21.901Z,16.81
2023-05-09T06:06:21.886Z,16.85
2023-05-09T06:07:21.849Z,16.85
2023-05-09T06:08:21.879Z,16.86
2023-05-09T06:09:21.841Z,16.89
2023-05-09T06:10:21.827Z,16.93
2023-05-09T06:11:21.821Z,16.96
2023-05-09T06:12:21.804Z,16.99
2023-05-09T06:13:21.914Z,17.07
2023-05-09T06:14:21.806Z,17.11
2023-05-09T06:15:21.764Z,17.20
2023-05-09T06:16:21.797Z,17.26
2023-05-09T06:17:22.593Z,17.33
2023-05-09T06:18:21.737Z,17.41
2023-05-09T06:19:21.726Z,17.51
2023-05-09T06:20:21.733Z,17.57
2023-05-09T06:21:21.707Z,17.66
2023-05-09T06:22:21.714Z,17.74
2023-05-09T06:23:21.727Z,17.79
2023-05-09T06:24:34.446Z,17.82
2023-05-09T06:25:21.657Z,17.87
2023-05-09T06:26:21.643Z,17.88
2023-05-09T06:27:21.657Z,17.92
2023-05-09T06:28:21.626Z,17.99
2023-05-09T06:29:21.608Z,18.02
2023-05-09T06:30:26.212Z,18.02
2023-05-09T06:31:22.028Z,18.02
2023-05-09T06:32:21.610Z,18.04
2023-05-09T06:33:21.582Z,18.06
2023-05-09T06:34:21.560Z,18.06
2023-05-09T06:35:21.640Z,18.06
2023-05-09T06:36:21.553Z,18.10
2023-05-09T06:37:21.527Z,18.12
2023-05-09T06:38:21.553Z,18.13
2023-05-09T06:39:21.508Z,18.18
2023-05-09T06:40:21.508Z,18.24
2023-05-09T06:41:21.513Z,18.25
2023-05-09T06:42:21.504Z,18.29
2023-05-09T06:43:21.493Z,18.33
2023-05-09T06:44:21.448Z,18.36
2023-05-09T06:45:21.476Z,18.42
2023-05-09T06:46:21.505Z,18.46
2023-05-09T06:47:21.419Z,18.50
2023-05-09T06:48:21.423Z,18.58
2023-05-09T06:49:21.396Z,18.59
2023-05-09T06:50:21.391Z,18.59
2023-05-09T06:51:21.387Z,18.64
2023-05-09T06:52:21.373Z,18.70
2023-05-09T06:53:21.352Z,18.70
2023-05-09T06:54:21.366Z,18.70
2023-05-09T06:55:21.346Z,18.70
2023-05-09T06:56:21.341Z,18.72
2023-05-09T06:57:21.308Z,18.65
2023-05-09T06:58:21.293Z,18.62
2023-05-09T06:59:21.299Z,18.59
2023-05-09T07:00:21.274Z,18.62
2023-05-09T07:01:21.274Z,18.70
2023-05-09T07:02:21.264Z,18.76
2023-05-09T07:03:21.237Z,18.80
2023-05-09T07:04:21.271Z,18.83
2023-05-09T07:05:21.229Z,18.80
2023-05-09T07:06:21.216Z,18.83
2023-05-09T07:07:21.191Z,18.84
2023-05-09T07:08:21.186Z,18.87
2023-05-09T07:09:21.178Z,18.94
2023-05-09T07:10:27.319Z,19.01
2023-05-09T07:11:21.168Z,19.06
2023-05-09T07:12:21.158Z,19.13
2023-05-09T07:13:21.287Z,19.15
2023-05-09T07:14:21.130Z,19.18
2023-05-09T07:15:36.751Z,19.25
2023-05-09T07:16:21.172Z,19.31
2023-05-09T07:17:23.903Z,19.38
2023-05-09T07:18:21.088Z,19.40
2023-05-09T07:19:22.058Z,19.47
2023-05-09T07:20:21.080Z,19.50
2023-05-09T07:21:21.039Z,19.48
2023-05-09T07:22:21.050Z,19.38
2023-05-09T07:23:21.010Z,19.29
2023-05-09T07:24:21.007Z,19.28
2023-05-09T07:25:21.009Z,19.21
2023-05-09T07:26:21.022Z,19.18
2023-05-09T07:27:20.976Z,19.17
2023-05-09T07:28:20.965Z,19.11
2023-05-09T07:29:20.954Z,19.08
2023-05-09T07:30:20.990Z,19.02
2023-05-09T07:31:20.950Z,18.94
2023-05-09T07:32:20.947Z,18.90
2023-05-09T07:33:20.910Z,18.90
2023-05-09T07:34:20.913Z,18.90
2023-05-09T07:35:20.940Z,18.83
2023-05-09T07:36:20.877Z,18.86
2023-05-09T07:37:20.863Z,18.86
2023-05-09T07:38:20.862Z,18.91
2023-05-09T07:39:20.842Z,18.94
2023-05-09T07:40:20.832Z,18.95
2023-05-09T07:41:20.845Z,18.97
2023-05-09T07:42:20.808Z,19.01
2023-05-09T07:43:20.805Z,19.05
2023-05-09T07:44:20.795Z,19.08
2023-05-09T07:45:23.513Z,19.01
2023-05-09T07:46:20.865Z,18.99
2023-05-09T07:47:20.780Z,18.97
2023-05-09T07:48:20.785Z,18.92
2023-05-09T07:49:20.723Z,18.87
2023-05-09T07:50:20.714Z,18.86
2023-05-09T07:51:20.706Z,18.83
2023-05-09T07:52:20.707Z,18.82
2023-05-09T07:53:20.708Z,18.84
2023-05-09T07:54:20.686Z,18.83
2023-05-09T07:55:20.656Z,18.86
2023-05-09T07:56:20.660Z,18.94
2023-05-09T07:57:20.650Z,18.98
2023-05-09T07:58:20.653Z,19.05
2023-05-09T07:59:20.676Z,19.08
2023-05-09T08:00:20.608Z,19.10
2023-05-09T08:01:20.597Z,19.11
2023-05-09T08:02:20.631Z,19.10
2023-05-09T08:03:20.671Z,19.08
2023-05-09T08:04:20.655Z,19.02
2023-05-09T08:05:20.571Z,18.97
2023-05-09T08:06:20.541Z,18.95
2023-05-09T08:07:20.521Z,18.95
2023-05-09T08:08:20.540Z,18.95
2023-05-09T08:09:20.512Z,18.95
2023-05-09T08:10:20.495Z,18.98
2023-05-09T08:11:20.512Z,18.99
2023-05-09T08:12:20.472Z,18.99
2023-05-09T08:13:20.642Z,19.01
2023-05-09T08:14:20.455Z,19.13
2023-05-09T08:15:20.429Z,19.18
2023-05-09T08:16:20.531Z,19.24
2023-05-09T08:17:20.439Z,19.28
2023-05-09T08:18:20.407Z,19.32
2023-05-09T08:19:20.399Z,19.33
2023-05-09T08:20:20.382Z,19.33
2023-05-09T08:21:22.150Z,19.33
2023-05-09T08:22:20.393Z,19.32
2023-05-09T08:23:20.393Z,19.32
2023-05-09T08:24:20.420Z,19.38
2023-05-09T08:25:20.343Z,19.39
2023-05-09T08:26:20.331Z,19.43
2023-05-09T08:27:20.309Z,19.51
2023-05-09T08:28:21.165Z,19.57
2023-05-09T08:29:20.307Z,19.63
2023-05-09T08:30:20.273Z,19.72
2023-05-09T08:31:20.307Z,19.79
2023-05-09T08:32:20.264Z,19.91
2023-05-09T08:33:20.262Z,20.05
2023-05-09T08:34:20.256Z,20.10
2023-05-09T08:35:20.253Z,20.25
2023-05-09T08:36:20.208Z,20.43
2023-05-09T08:37:20.230Z,20.54
2023-05-09T08:38:20.192Z,20.69
2023-05-09T08:39:20.180Z,20.86
2023-05-09T08:40:20.173Z,20.90
2023-05-09T08:41:20.172Z,20.98
2023-05-09T08:42:20.150Z,21.19
2023-05-09T08:43:20.151Z,21.29
2023-05-09T08:44:20.119Z,21.41
2023-05-09T08:45:20.140Z,21.56
2023-05-09T08:46:20.110Z,21.63
2023-05-09T08:47:20.106Z,21.75
2023-05-09T08:48:20.081Z,21.83
2023-05-09T08:49:20.068Z,21.91
2023-05-09T08:50:20.270Z,21.85
2023-05-09T08:51:20.067Z,21.78
2023-05-09T08:52:20.041Z,21.75
2023-05-09T08:53:20.028Z,21.78
2023-05-09T08:54:22.159Z,21.79
2023-05-09T08:55:20.016Z,21.72
2023-05-09T08:56:19.987Z,21.60
2023-05-09T08:57:20.010Z,21.54
2023-05-09T08:58:19.975Z,21.48
2023-05-09T08:59:19.954Z,21.61
2023-05-09T09:00:20.832Z,21.76
2023-05-09T09:01:19.954Z,21.94
2023-05-09T09:02:19.953Z,22.10
2023-05-09T09:03:19.934Z,22.09
2023-05-09T09:04:19.953Z,21.98
2023-05-09T09:05:39.887Z,21.97
2023-05-09T09:06:19.891Z,21.82
2023-05-09T09:07:19.905Z,21.75
2023-05-09T09:08:19.865Z,21.71
2023-05-09T09:09:19.844Z,21.59
2023-05-09T09:10:19.850Z,21.46
2023-05-09T09:11:19.830Z,21.27
2023-05-09T09:12:19.808Z,21.06
2023-05-09T09:13:19.852Z,20.93
2023-05-09T09:14:19.812Z,20.83
2023-05-09T09:15:19.780Z,20.68
2023-05-09T09:16:19.818Z,20.59
2023-05-09T09:17:19.768Z,20.54
2023-05-09T09:18:19.770Z,20.47
2023-05-09T09:19:19.741Z,20.38
2023-05-09T09:20:19.741Z,20.35
2023-05-09T09:21:19.727Z,20.39
2023-05-09T09:22:19.703Z,20.39
2023-05-09T09:23:19.715Z,20.35
2023-05-09T09:24:19.675Z,20.31
2023-05-09T09:25:19.667Z,20.25
2023-05-09T09:26:19.661Z,20.15
2023-05-09T09:27:19.672Z,20.09
2023-05-09T09:28:19.640Z,20.06
2023-05-09T09:30:28.862Z,20.02
2023-05-09T09:31:29.885Z,19.97
2023-05-09T09:32:29.940Z,19.94
2023-05-09T09:33:50.856Z,19.95
2023-05-09T09:34:50.826Z,19.97
2023-05-09T09:35:29.847Z,19.97
2023-05-09T09:36:29.802Z,20.02
2023-05-09T09:37:29.787Z,20.02
2023-05-09T09:38:29.776Z,20.05
2023-05-09T09:39:29.773Z,20.09
2023-05-09T09:40:29.788Z,20.08
2023-05-09T09:41:29.745Z,20.08
2023-05-09T09:42:29.743Z,20.09
2023-05-09T09:43:29.741Z,20.12
2023-05-09T09:44:29.722Z,20.13
2023-05-09T09:45:29.722Z,20.16
2023-05-09T09:46:29.751Z,20.21
2023-05-09T09:47:29.729Z,20.27
2023-05-09T09:48:29.665Z,20.34
2023-05-09T09:49:29.663Z,20.43
2023-05-09T09:50:29.648Z,20.54
2023-05-09T09:51:29.654Z,20.68
2023-05-09T09:52:29.635Z,20.80
2023-05-09T09:53:29.645Z,20.95
2023-05-09T09:54:29.626Z,21.06
2023-05-09T09:55:29.659Z,21.19
2023-05-09T09:56:29.610Z,21.24
2023-05-09T09:57:29.582Z,21.24
2023-05-09T09:58:30.427Z,21.35
2023-05-09T09:59:29.552Z,21.48
2023-05-09T10:00:29.588Z,21.54
2023-05-09T10:01:29.615Z,21.54
2023-05-09T10:02:29.570Z,21.63
2023-05-09T10:03:29.532Z,21.74
2023-05-09T10:04:29.487Z,21.78
2023-05-09T10:05:29.480Z,21.79
2023-05-09T10:06:29.499Z,21.75
2023-05-09T10:07:29.459Z,21.71
2023-05-09T10:08:29.455Z,21.72
2023-05-09T10:09:29.439Z,21.71
2023-05-09T10:10:29.441Z,21.69
2023-05-09T10:11:29.451Z,21.78
2023-05-09T10:12:29.410Z,21.91
2023-05-09T10:13:29.417Z,21.99
2023-05-09T10:14:29.392Z,22.13
2023-05-09T10:15:35.671Z,22.28
2023-05-09T10:16:42.595Z,22.43
2023-05-09T10:17:29.502Z,22.50
2023-05-09T10:18:29.854Z,22.60
2023-05-09T10:19:29.328Z,22.49
2023-05-09T10:20:29.324Z,22.39
2023-05-09T10:21:29.314Z,22.14
2023-05-09T10:22:29.303Z,22.04
2023-05-09T10:23:29.336Z,21.95
2023-05-09T10:24:29.286Z,21.78
2023-05-09T10:25:29.261Z,21.64
2023-05-09T10:26:29.268Z,21.48
2023-05-09T10:27:29.243Z,21.36
2023-05-09T10:28:29.248Z,21.36
2023-05-09T10:29:29.224Z,21.39
2023-05-09T10:30:30.233Z,21.45
2023-05-09T10:31:29.541Z,21.59
2023-05-09T10:32:29.213Z,21.63
2023-05-09T10:33:29.204Z,21.72
2023-05-09T10:34:29.169Z,21.74
2023-05-09T10:35:29.168Z,21.67
2023-05-09T10:36:29.166Z,21.67
2023-05-09T10:37:29.849Z,21.64
2023-05-09T10:38:29.162Z,21.59
2023-05-09T10:39:29.110Z,21.48
2023-05-09T10:40:29.132Z,21.54
2023-05-09T10:41:29.078Z,21.66
2023-05-09T10:42:29.080Z,21.76
2023-05-09T10:43:29.470Z,21.88
2023-05-09T10:44:29.094Z,22.06
2023-05-09T10:45:29.050Z,22.28
2023-05-09T10:46:29.065Z,22.47
2023-05-09T10:47:29.085Z,22.74
2023-05-09T10:48:29.041Z,22.93
2023-05-09T10:49:29.025Z,22.90
2023-05-09T10:50:29.010Z,23.04
2023-05-09T10:51:28.979Z,23.12
2023-05-09T10:52:28.970Z,23.15
2023-05-09T10:53:28.956Z,23.09
2023-05-09T10:54:30.888Z,23.27
2023-05-09T10:55:28.954Z,23.32
2023-05-09T10:56:28.927Z,23.26
2023-05-09T10:57:28.917Z,23.12
2023-05-09T10:58:28.907Z,23.09
2023-05-09T10:59:28.890Z,23.29
2023-05-09T11:00:28.906Z,23.62
2023-05-09T11:01:28.915Z,23.87
2023-05-09T11:02:28.915Z,24.35
2023-05-09T11:03:28.949Z,24.63
2023-05-09T11:04:28.846Z,24.85
2023-05-09T11:05:28.847Z,24.98
2023-05-09T11:06:28.821Z,24.85
2023-05-09T11:07:28.813Z,24.90
2023-05-09T11:08:28.805Z,25.10
2023-05-09T11:09:28.819Z,25.01
2023-05-09T11:10:28.797Z,24.88
2023-05-09T11:11:28.788Z,25.20
2023-05-09T11:12:28.755Z,25.50
2023-05-09T11:13:28.785Z,25.37
2023-05-09T11:14:28.729Z,25.44
2023-05-09T11:15:28.718Z,25.39
2023-05-09T11:16:28.780Z,25.49
2023-05-09T11:17:28.730Z,25.87
2023-05-09T11:18:28.688Z,25.91
2023-05-09T11:19:28.674Z,26.01
2023-05-09T11:20:28.665Z,26.12
2023-05-09T11:21:28.678Z,26.36
2023-05-09T11:22:28.668Z,26.22
2023-05-09T11:23:28.654Z,26.40
2023-05-09T11:24:28.630Z,26.36
2023-05-09T11:25:28.611Z,26.47
2023-05-09T11:26:28.631Z,26.27
2023-05-09T11:27:28.620Z,26.61
2023-05-09T11:28:28.576Z,27.20
2023-05-09T11:29:28.566Z,27.32
2023-05-09T11:30:28.560Z,27.35
2023-05-09T11:31:28.592Z,26.87
2023-05-09T11:32:28.555Z,26.73
2023-05-09T11:33:28.539Z,26.80
2023-05-09T11:34:28.516Z,26.79
2023-05-09T11:35:28.514Z,26.89
2023-05-09T11:36:28.520Z,26.77
2023-05-09T11:37:28.480Z,26.58
2023-05-09T11:38:28.472Z,26.27
2023-05-09T11:39:28.463Z,26.02
2023-05-09T11:40:28.458Z,26.09
2023-05-09T11:41:28.439Z,26.31
2023-05-09T11:42:28.456Z,26.74
2023-05-09T11:43:28.449Z,26.98
2023-05-09T11:44:28.420Z,27.48
2023-05-09T11:45:28.396Z,27.80
2023-05-09T11:46:28.455Z,28.10
2023-05-09T11:47:28.442Z,28.36
2023-05-09T11:48:28.382Z,28.80
2023-05-09T11:49:28.358Z,29.07
2023-05-09T11:50:28.368Z,29.38
2023-05-09T11:51:28.349Z,29.10
2023-05-09T11:52:28.360Z,29.13
2023-05-09T11:53:28.325Z,29.18
2023-05-09T11:54:28.378Z,28.47
2023-05-09T11:55:28.300Z,27.77
2023-05-09T11:56:28.291Z,27.29
2023-05-09T11:57:28.293Z,26.74
2023-05-09T11:58:28.270Z,26.46
2023-05-09T11:59:28.259Z,26.18
2023-05-09T12:00:28.272Z,25.98
2023-05-09T12:01:28.229Z,25.86
2023-05-09T12:02:28.311Z,25.79
2023-05-09T12:03:28.399Z,25.90
2023-05-09T12:04:28.258Z,25.89
2023-05-09T12:05:28.197Z,26.06
2023-05-09T12:06:28.196Z,26.24
2023-05-09T12:07:28.165Z,26.36
2023-05-09T12:08:28.165Z,26.04
2023-05-09T12:09:28.168Z,25.86
2023-05-09T12:10:28.138Z,25.77
2023-05-09T12:11:28.127Z,25.90
2023-05-09T12:12:28.117Z,25.94
2023-05-09T12:13:28.199Z,25.97
2023-05-09T12:14:28.122Z,26.58
2023-05-09T12:15:28.078Z,27.39
2023-05-09T12:16:28.142Z,27.61
2023-05-09T12:17:28.088Z,27.74
2023-05-09T12:18:28.046Z,27.57
2023-05-09T12:19:28.106Z,27.61
2023-05-09T12:20:28.039Z,27.69
2023-05-09T12:21:28.038Z,28.09
2023-05-09T12:22:28.009Z,27.96
2023-05-09T12:23:28.001Z,28.48
2023-05-09T12:24:28.027Z,28.50
2023-05-09T12:25:27.982Z,28.01
2023-05-09T12:26:27.969Z,27.57
2023-05-09T12:27:28.029Z,27.14
2023-05-09T12:28:27.943Z,26.84
2023-05-09T12:29:27.939Z,26.72
2023-05-09T12:30:27.949Z,26.81
2023-05-09T12:31:27.958Z,27.05
2023-05-09T12:32:27.921Z,27.36
2023-05-09T12:33:27.908Z,27.51
2023-05-09T12:34:27.908Z,27.59
2023-05-09T12:35:27.881Z,27.64
2023-05-09T12:36:27.889Z,27.53
2023-05-09T12:37:27.868Z,27.04
2023-05-09T12:38:27.837Z,26.69
2023-05-09T12:39:27.829Z,26.46
2023-05-09T12:40:27.870Z,26.25
2023-05-09T12:41:36.873Z,26.29
2023-05-09T12:42:27.840Z,26.15
2023-05-09T12:43:27.822Z,25.90
2023-05-09T12:44:27.780Z,25.64
2023-05-09T12:45:27.784Z,25.35
2023-05-09T12:46:27.851Z,25.22
2023-05-09T12:47:27.787Z,25.06
2023-05-09T12:48:27.770Z,24.82
2023-05-09T12:49:27.761Z,24.73
2023-05-09T12:50:27.714Z,24.69
2023-05-09T12:51:27.717Z,24.61
2023-05-09T12:52:27.697Z,24.57
2023-05-09T12:53:27.942Z,24.37